Time;durP1;ratioP1;P1;durP2;ratioP2;P2;SDS_P1;SDS_P2;PMS_P1;PMS_P2;Temp;Humidity;BMP_temperature;BMP_pressure;BME280_temperature;BME280_humidity;BME280_pressure;Samples;Min_cycle;Max_cycle;Signal;HPM_P1;HPM_P2
2022/10/09 00:00:45;;;;;;;4.50;2.30;;;;;;;13.82;63.00;100950.16;4981800;28;101554;-83
2022/10/09 00:03:11;;;;;;;4.85;2.65;;;;;;;13.97;63.05;100973.31;4988183;28;97750;-83
2022/10/09 00:05:37;;;;;;;9.10;3.20;;;;;;;14.00;62.88;100975.84;4987426;28;97324;-82
2022/10/09 00:08:02;;;;;;;8.93;3.53;;;;;;;13.78;62.95;100944.09;4994201;28;97339;-83
2022/10/09 00:10:28;;;;;;;12.45;4.60;;;;;;;13.85;63.12;100971.16;4991279;28;101277;-84
2022/10/09 00:12:54;;;;;;;9.55;3.97;;;;;;;13.87;63.11;100987.75;4971173;28;99993;-82
2022/10/09 00:15:20;;;;;;;7.30;3.42;;;;;;;13.85;63.15;100981.72;4996140;28;97182;-83
2022/10/09 00:17:46;;;;;;;7.72;3.72;;;;;;;13.87;63.14;100984.28;4998804;28;97143;-83
2022/10/09 00:20:11;;;;;;;7.95;3.53;;;;;;;13.80;63.08;100987.13;4997653;28;100433;-83
2022/10/09 00:22:37;;;;;;;8.20;2.83;;;;;;;13.77;62.96;100970.56;5000701;27;100489;-83
2022/10/09 00:25:04;;;;;;;9.77;2.90;;;;;;;13.81;63.05;100983.56;5001121;28;96796;-84
2022/10/09 00:27:29;;;;;;;9.80;3.10;;;;;;;13.79;62.80;100989.84;4961973;28;97396;-82
2022/10/09 00:29:55;;;;;;;5.10;2.85;;;;;;;13.74;63.27;100992.66;5006201;28;100754;-83
2022/10/09 00:32:21;;;;;;;8.23;2.95;;;;;;;13.67;63.51;100988.53;4976698;28;101411;-83
2022/10/09 00:34:46;;;;;;;4.57;2.33;;;;;;;13.49;62.73;100963.63;4989281;28;96972;-83
2022/10/09 00:37:12;;;;;;;9.23;2.85;;;;;;;13.70;62.64;101001.59;5011626;28;97064;-83
2022/10/09 00:39:37;;;;;;;6.35;1.90;;;;;;;13.69;62.93;101001.63;4993984;28;101201;-82
2022/10/09 00:42:03;;;;;;;7.15;2.90;;;;;;;13.66;62.82;101007.03;4993520;28;101208;-83
2022/10/09 00:44:47;;;;;;;5.60;2.42;;;;;;;13.66;62.68;101017.59;4971709;28;97254;-83
2022/10/09 00:47:26;;;;;;;7.78;2.47;;;;;;;13.61;63.00;101012.47;4995899;28;96956;-83
2022/10/09 00:49:55;;;;;;;4.30;2.25;;;;;;;13.57;62.77;101003.81;4998060;28;98541;-83
2022/10/09 00:52:23;;;;;;;6.22;2.65;;;;;;;13.52;62.91;101007.50;4984537;28;98217;-83
2022/10/09 00:54:48;;;;;;;6.20;2.28;;;;;;;13.53;62.95;101011.91;4981306;28;96776;-83
2022/10/09 00:57:14;;;;;;;5.80;2.83;;;;;;;13.48;62.63;101000.63;4967509;28;97248;-83
2022/10/09 00:59:40;;;;;;;8.30;2.70;;;;;;;13.46;62.67;101008.59;4993206;28;100014;-83
2022/10/09 01:02:06;;;;;;;6.93;2.38;;;;;;;13.43;63.27;101007.84;4991858;28;101829;-82
2022/10/09 01:04:31;;;;;;;6.47;2.88;;;;;;;13.34;62.73;101001.97;4990039;28;97199;-82
2022/10/09 01:07:13;;;;;;;7.57;2.97;;;;;;;13.42;62.81;101020.16;4986329;28;97056;-83
2022/10/09 01:09:40;;;;;;;;;;;;;;;13.40;62.88;101029.91;4997384;28;101653;-83
2022/10/09 01:12:39;;;;;;;5.25;2.22;;;;;;;13.26;62.94;101005.78;4992811;28;100739;-83
2022/10/09 01:15:17;;;;;;;12.00;3.38;;;;;;;13.40;62.32;101023.78;4996246;28;97196;-83
2022/10/09 01:18:07;;;;;;;6.35;2.83;;;;;;;13.27;62.89;101016.28;4970598;28;97092;-82
2022/10/09 01:20:44;;;;;;;3.85;2.10;;;;;;;13.36;63.12;101031.78;4997389;28;97519;-82
2022/10/09 01:23:49;;;;;;;5.47;2.30;;;;;;;13.32;62.43;101032.81;4981260;28;101608;-83
2022/10/09 01:26:15;;;;;;;6.07;2.85;;;;;;;13.33;63.09;101031.03;5022384;28;97370;-83
2022/10/09 01:28:51;;;;;;;10.38;3.08;;;;;;;13.28;62.75;101033.81;5014591;28;97181;-83
2022/10/09 01:31:17;;;;;;;8.60;2.22;;;;;;;13.26;62.53;101035.63;4998343;28;98533;-83
2022/10/09 01:33:43;;;;;;;4.00;2.20;;;;;;;13.28;62.46;101047.00;4975132;28;101324;-83
2022/10/09 01:36:09;;;;;;;7.57;2.47;;;;;;;13.22;62.69;101035.78;4980209;28;97334;-83
2022/10/09 01:38:35;;;;;;;9.98;2.75;;;;;;;13.25;62.56;101043.59;5014665;28;97451;-82
2022/10/09 01:41:02;;;;;;;8.13;3.08;;;;;;;13.24;62.85;101052.41;4996763;28;98215;-83
2022/10/09 01:43:27;;;;;;;4.47;2.30;;;;;;;13.18;62.83;101048.22;4997204;28;98758;-83
2022/10/09 01:46:17;;;;;;;7.40;3.47;;;;;;;13.18;63.25;101052.59;5016264;27;97412;-84
2022/10/09 01:48:45;;;;;;;4.55;2.38;;;;;;;13.12;62.88;101045.78;5003733;28;97214;-83
2022/10/09 01:51:10;;;;;;;3.42;1.80;;;;;;;13.10;62.33;101042.31;4995023;28;101045;-83
2022/10/09 01:53:37;;;;;;;5.65;2.92;;;;;;;12.95;62.45;101019.13;4993505;28;101470;-83
2022/10/09 01:56:12;;;;;;;4.43;1.95;;;;;;;13.06;62.92;101054.75;5010214;28;96869;-83
2022/10/09 01:59:11;;;;;;;4.47;1.98;;;;;;;13.09;62.51;101059.91;4980345;28;97325;-84
2022/10/09 02:01:38;;;;;;;5.20;2.20;;;;;;;12.94;62.05;101033.19;4941688;28;101462;-83
2022/10/09 02:04:06;;;;;;;6.20;2.17;;;;;;;12.88;62.48;101024.56;4995595;28;100001;-84
2022/10/09 02:06:33;;;;;;;4.85;2.58;;;;;;;12.98;62.54;101050.63;5013589;28;96940;-83
2022/10/09 02:09:00;;;;;;;8.60;2.58;;;;;;;13.02;62.72;101062.78;4988085;28;97291;-83
2022/10/09 02:11:28;;;;;;;3.88;1.95;;;;;;;12.99;62.65;101057.63;4991162;28;101640;-83
2022/10/09 02:13:54;;;;;;;5.32;2.33;;;;;;;12.89;62.43;101046.53;4993788;28;100887;-83
2022/10/09 02:16:26;;;;;;;6.07;2.00;;;;;;;13.00;62.55;101072.50;4992564;28;97279;-82
2022/10/09 02:19:02;;;;;;;3.08;1.90;;;;;;;12.94;62.47;101065.66;5008646;28;97031;-83
2022/10/09 02:21:38;;;;;;;6.70;2.35;;;;;;;12.95;62.54;101071.81;4988265;28;100785;-83
2022/10/09 02:24:05;;;;;;;7.85;2.03;;;;;;;12.94;62.41;101070.06;5012331;28;97951;-83
2022/10/09 02:26:31;;;;;;;3.53;1.83;;;;;;;12.93;62.70;101077.13;4978519;28;97168;-84
2022/10/09 02:28:57;;;;;;;4.10;1.88;;;;;;;12.90;62.33;101080.72;5012098;28;99156;-83
2022/10/09 02:31:26;;;;;;;6.85;1.70;;;;;;;12.86;62.06;101084.38;4993518;28;101470;-84
2022/10/09 02:33:56;;;;;;;4.28;1.90;;;;;;;12.87;62.41;101083.44;4989246;28;101656;-83
2022/10/09 02:36:22;;;;;;;4.75;1.90;;;;;;;12.81;62.52;101094.19;5011421;28;96927;-84
2022/10/09 02:38:47;;;;;;;4.25;1.52;;;;;;;12.73;62.27;101084.78;4993050;28;96960;-83
2022/10/09 02:41:13;;;;;;;5.47;2.10;;;;;;;12.71;62.68;101090.09;5001896;28;97963;-84
2022/10/09 02:43:38;;;;;;;3.58;1.92;;;;;;;12.67;62.55;101084.06;4982330;28;97964;-83
2022/10/09 02:46:04;;;;;;;6.50;2.22;;;;;;;12.68;62.81;101090.19;4986920;28;96833;-83
2022/10/09 02:48:29;;;;;;;4.55;1.88;;;;;;;12.57;62.36;101084.41;4993534;28;96889;-83
2022/10/09 02:50:55;;;;;;;4.22;2.08;;;;;;;12.64;62.85;101102.59;5006820;28;97953;-83
2022/10/09 02:53:21;;;;;;;4.45;1.67;;;;;;;12.64;62.43;101110.50;4978477;28;101331;-83
2022/10/09 02:55:46;;;;;;;3.40;1.30;;;;;;;12.64;62.45;101115.75;5012295;28;96976;-83
2022/10/09 02:58:12;;;;;;;6.13;1.40;;;;;;;12.65;62.65;101133.31;5012569;28;96990;-84
2022/10/09 03:00:38;;;;;;;5.65;1.80;;;;;;;12.54;62.61;101108.19;4995553;28;98010;-84
2022/10/09 03:03:04;;;;;;;4.30;1.80;;;;;;;12.57;62.30;101122.13;4991974;28;101400;-83
2022/10/09 03:05:29;;;;;;;4.15;1.73;;;;;;;12.57;62.50;101124.78;4990187;28;97341;-83
2022/10/09 03:07:55;;;;;;;6.65;1.50;;;;;;;12.43;62.50;101104.09;4993343;28;97099;-84
2022/10/09 03:10:20;;;;;;;4.15;1.83;;;;;;;12.54;62.52;101122.22;4971707;28;101559;-83
2022/10/09 03:12:46;;;;;;;3.78;1.67;;;;;;;12.46;62.30;101111.91;4997681;28;100881;-83
2022/10/09 03:15:12;;;;;;;6.07;2.10;;;;;;;12.52;62.53;101125.81;4981957;28;97019;-83
2022/10/09 03:17:38;;;;;;;6.43;1.98;;;;;;;12.39;62.29;101113.00;4999173;28;96967;-83
2022/10/09 03:20:05;;;;;;;4.90;1.40;;;;;;;12.44;62.30;101123.38;4995413;28;97974;-83
2022/10/09 03:22:30;;;;;;;4.97;1.85;;;;;;;12.49;62.17;101137.28;4992931;28;101057;-84
2022/10/09 03:24:56;;;;;;;3.55;1.70;;;;;;;12.46;62.11;101132.13;5015337;27;97034;-83
2022/10/09 03:27:22;;;;;;;6.85;2.20;;;;;;;12.42;62.47;101139.25;5015465;28;97158;-83
2022/10/09 03:29:47;;;;;;;4.85;1.70;;;;;;;12.38;62.81;101137.59;4978425;28;101316;-83
2022/10/09 03:32:13;;;;;;;6.68;1.80;;;;;;;12.37;62.65;101143.78;4984255;28;101718;-84
2022/10/09 03:34:38;;;;;;;7.65;1.73;;;;;;;12.24;62.70;101127.44;5010450;28;97128;-83
2022/10/09 03:37:04;;;;;;;4.32;1.80;;;;;;;12.36;62.65;101149.97;4976584;28;96959;-83
2022/10/09 03:39:30;;;;;;;5.78;1.90;;;;;;;12.33;62.53;101142.13;4991092;28;101206;-83
2022/10/09 03:41:55;;;;;;;3.72;1.70;;;;;;;12.33;62.56;101150.00;4986226;28;98098;-83
2022/10/09 03:44:21;;;;;;;7.55;2.03;;;;;;;12.27;62.18;101152.81;4984853;28;96636;-84
2022/10/09 03:46:47;;;;;;;4.88;1.75;;;;;;;12.30;62.75;101160.63;4998640;28;97620;-84
2022/10/09 03:49:12;;;;;;;8.77;2.60;;;;;;;12.27;62.41;101155.47;5014910;28;101854;-83
2022/10/09 03:51:38;;;;;;;3.75;1.55;;;;;;;12.24;62.60;101159.03;4998546;28;101674;-83
2022/10/09 03:54:04;;;;;;;6.80;1.48;;;;;;;12.26;62.77;101166.03;5015334;28;97020;-83
2022/10/09 03:56:29;;;;;;;4.88;1.80;;;;;;;12.26;62.69;101158.16;4977715;27;96860;-83
2022/10/09 03:58:55;;;;;;;7.50;2.10;;;;;;;12.19;62.31;101153.06;4993052;28;97892;-83
2022/10/09 04:01:20;;;;;;;6.43;1.90;;;;;;;12.17;62.87;101165.38;4987434;28;96760;-83
2022/10/09 04:03:46;;;;;;;3.75;1.80;;;;;;;12.19;62.53;101171.47;4996508;28;96804;-83
2022/10/09 04:06:12;;;;;;;3.67;1.70;;;;;;;12.12;62.86;101174.31;4999067;28;97288;-84
2022/10/09 04:08:37;;;;;;;6.97;2.05;;;;;;;12.08;62.81;101176.16;5015028;28;101306;-84
2022/10/09 04:11:03;;;;;;;4.70;2.00;;;;;;;12.04;62.63;101169.25;4980781;28;100955;-83
2022/10/09 04:13:29;;;;;;;6.38;2.40;;;;;;;11.97;62.55;101176.44;4993217;28;97147;-83
2022/10/09 04:15:54;;;;;;;5.30;1.90;;;;;;;11.99;62.63;101172.00;4994464;28;97249;-83
2022/10/09 04:18:20;;;;;;;5.82;1.90;;;;;;;12.07;62.79;101197.25;4987978;28;97644;-83
2022/10/09 04:20:51;;;;;;;6.82;1.85;;;;;;;12.04;62.56;101192.91;4994239;28;101460;-83
2022/10/09 04:23:17;;;;;;;9.07;1.88;;;;;;;11.99;62.66;101185.16;4993680;28;96875;-83
2022/10/09 04:25:43;;;;;;;4.53;1.73;;;;;;;12.03;62.72;101195.63;5013122;28;97173;-83
2022/10/09 04:28:09;;;;;;;5.32;1.60;;;;;;;12.00;62.58;101192.16;4984514;28;98514;-83
2022/10/09 04:30:35;;;;;;;6.57;1.75;;;;;;;11.94;63.04;101199.34;4985266;28;100738;-82
2022/10/09 04:33:00;;;;;;;9.38;2.63;;;;;;;11.88;62.82;101188.97;4997519;28;97341;-84
2022/10/09 04:35:26;;;;;;;4.35;1.98;;;;;;;11.68;62.84;101150.84;4994501;28;97064;-83
2022/10/09 04:37:51;;;;;;;5.63;1.95;;;;;;;11.90;62.79;101195.94;4986653;28;102180;-83
2022/10/09 04:40:17;;;;;;;4.97;1.85;;;;;;;11.79;62.83;101184.78;4979477;28;101670;-83
2022/10/09 04:42:42;;;;;;;6.90;3.13;;;;;;;11.74;62.97;101178.78;4987149;28;96773;-83
2022/10/09 04:45:08;;;;;;;6.43;4.05;;;;;;;11.82;63.26;101197.84;4990193;28;97157;-83
2022/10/09 04:47:34;;;;;;;7.00;3.92;;;;;;;11.82;63.58;101197.84;5006945;28;97933;-83
2022/10/09 04:50:00;;;;;;;6.80;3.78;;;;;;;11.86;63.31;101203.94;4982826;28;103240;-84
2022/10/09 04:52:25;;;;;;;8.25;3.22;;;;;;;11.86;63.38;101207.41;4997711;28;96919;-84
2022/10/09 04:54:51;;;;;;;5.97;2.35;;;;;;;11.89;62.81;101214.38;4994324;28;97244;-83
2022/10/09 04:57:16;;;;;;;7.65;2.85;;;;;;;11.79;62.90;101195.31;4991541;28;98450;-82
2022/10/09 04:59:42;;;;;;;9.50;1.95;;;;;;;11.84;63.10;101205.69;4981303;28;101500;-84
2022/10/09 05:02:08;;;;;;;6.53;2.28;;;;;;;11.84;63.08;101213.59;4993148;27;99357;-84
2022/10/09 05:04:33;;;;;;;6.75;2.10;;;;;;;11.77;63.01;101205.00;4979254;28;97848;-84
2022/10/09 05:06:59;;;;;;;10.88;2.33;;;;;;;11.65;63.56;101200.03;4966787;28;100594;-84
2022/10/09 05:09:24;;;;;;;4.68;1.80;;;;;;;11.79;63.08;101214.56;4960233;28;101023;-84
2022/10/09 05:11:50;;;;;;;9.35;2.20;;;;;;;11.81;63.15;101226.81;4973853;28;96883;-83
2022/10/09 05:14:15;;;;;;;5.68;1.73;;;;;;;11.75;63.33;101225.19;4980268;28;96807;-83
2022/10/09 05:16:41;;;;;;;5.18;1.98;;;;;;;11.69;63.03;101210.47;4968724;28;101541;-83
2022/10/09 05:19:07;;;;;;;4.93;1.88;;;;;;;11.67;63.26;101209.63;4993121;27;101562;-83
2022/10/09 05:21:32;;;;;;;5.43;1.77;;;;;;;11.73;63.37;101225.25;4992333;28;96683;-83
2022/10/09 05:23:58;;;;;;;7.30;2.42;;;;;;;11.74;63.34;101221.72;4977693;28;97186;-83
2022/10/09 05:26:24;;;;;;;4.38;1.40;;;;;;;11.74;62.98;101220.84;4996319;28;101421;-83
2022/10/09 05:28:50;;;;;;;6.35;1.70;;;;;;;11.70;63.49;101217.44;4980612;28;101875;-84
2022/10/09 05:31:24;;;;;;;9.05;2.42;;;;;;;11.80;63.42;101236.47;4983404;28;97208;-83
2022/10/09 05:33:50;;;;;;;7.72;2.40;;;;;;;11.77;63.12;101237.41;4997471;28;97078;-84
2022/10/09 05:36:16;;;;;;;10.32;1.90;;;;;;;11.73;63.09;101232.28;4993633;27;101878;-86
2022/10/09 05:38:41;;;;;;;9.18;2.28;;;;;;;11.69;63.28;101220.97;4999255;28;101484;-84
2022/10/09 05:41:10;;;;;;;6.88;1.92;;;;;;;11.71;62.95;101219.16;4994716;28;97011;-84
2022/10/09 05:43:40;;;;;;;6.18;1.80;;;;;;;11.82;63.37;101239.09;4976902;28;98353;-84
2022/10/09 05:46:09;;;;;;;6.15;2.00;;;;;;;11.63;63.48;101204.47;4995498;28;101032;-85
2022/10/09 05:48:36;;;;;;;5.40;1.92;;;;;;;11.90;62.82;101245.06;5025951;27;98092;-84
2022/10/09 05:51:08;;;;;;;5.13;1.83;;;;;;;12.08;62.61;101244.59;4992433;28;97228;-83
2022/10/09 05:53:34;;;;;;;5.28;2.60;;;;;;;12.18;62.14;101250.47;4975501;28;96961;-83
2022/10/09 05:56:20;;;;;;;7.68;2.30;;;;;;;12.38;61.64;101244.69;4987184;27;98017;-83
2022/10/09 05:58:50;;;;;;;7.88;2.40;;;;;;;12.59;61.42;101243.22;4988877;28;101840;-81
2022/10/09 06:01:16;;;;;;;8.98;2.80;;;;;;;12.82;61.02;101261.03;4992062;28;97455;-83
2022/10/09 06:03:42;;;;;;;6.60;2.95;;;;;;;12.89;60.61;101254.69;4967569;28;97294;-80
2022/10/09 06:06:07;;;;;;;6.28;2.35;;;;;;;13.00;60.96;101264.91;4978877;28;100932;-84
2022/10/09 06:08:35;;;;;;;3.72;2.10;;;;;;;13.13;60.44;101277.69;5008780;28;97412;-87
2022/10/09 06:11:12;;;;;;;6.80;2.55;;;;;;;13.30;59.83;101266.69;4989869;28;99088;-88
2022/10/09 06:13:38;;;;;;;8.48;2.58;;;;;;;13.56;59.31;101270.28;4981893;28;97273;-87
2022/10/09 06:16:04;;;;;;;6.93;2.42;;;;;;;13.69;58.85;101276.88;4997918;28;101563;-86
2022/10/09 06:18:30;;;;;;;7.35;2.70;;;;;;;13.85;58.09;101255.31;4988310;28;101067;-87
2022/10/09 06:20:58;;;;;;;7.25;2.40;;;;;;;14.10;58.01;101281.72;5022893;28;96994;-88
2022/10/09 06:23:23;;;;;;;9.52;2.72;;;;;;;14.25;57.60;101273.28;4995562;28;97273;-87
2022/10/09 06:25:53;;;;;;;6.10;2.25;;;;;;;14.52;57.34;101294.44;4978093;28;100752;-89
2022/10/09 06:28:19;;;;;;;6.05;2.22;;;;;;;14.66;57.02;101285.09;4995622;28;98354;-87
